Time;durP1;ratioP1;P1;durP2;ratioP2;P2;SDS_P1;SDS_P2;PMS_P1;PMS_P2;Temp;Humidity;BMP_temperature;BMP_pressure;BME280_temperature;BME280_humidity;BME280_pressure;Samples;Min_cycle;Max_cycle;Signal;HPM_P1;HPM_P2
2021/03/29 00:02:17;;;;;;;10.53;3.40;;;9.70;99.90;;;;;;5003257;28;20242;-54
2021/03/29 00:04:45;;;;;;;13.43;3.60;;;9.70;99.90;;;;;;5007709;28;20237;-57
2021/03/29 00:07:13;;;;;;;10.23;3.40;;;9.70;99.90;;;;;;5008137;28;20712;-53
2021/03/29 00:09:42;;;;;;;9.13;3.70;;;9.70;99.90;;;;;;5006844;28;20639;-56
2021/03/29 00:12:11;;;;;;;7.50;3.17;;;9.70;99.90;;;;;;5007453;28;20237;-55
2021/03/29 00:14:42;;;;;;;10.33;3.20;;;9.70;99.90;;;;;;5008004;28;20233;-54
2021/03/29 00:17:12;;;;;;;9.90;3.37;;;9.70;99.90;;;;;;5008294;28;20239;-52
2021/03/29 00:19:39;;;;;;;11.67;3.07;;;9.70;99.90;;;;;;5007508;28;20242;-56
2021/03/29 00:22:07;;;;;;;7.87;3.27;;;9.60;99.90;;;;;;5007851;28;20284;-52
2021/03/29 00:24:36;;;;;;;9.90;2.70;;;9.60;99.90;;;;;;5007634;28;20322;-56
2021/03/29 00:27:05;;;;;;;11.10;3.13;;;9.70;99.90;;;;;;4996547;28;20235;-54
2021/03/29 00:29:33;;;;;;;7.40;3.10;;;9.70;99.90;;;;;;5004517;28;20311;-53
2021/03/29 00:32:03;;;;;;;11.23;3.20;;;9.70;99.90;;;;;;5003743;28;20252;-52
2021/03/29 00:34:32;;;;;;;9.23;3.00;;;9.70;99.90;;;;;;4979571;28;20648;-52
2021/03/29 00:37:00;;;;;;;7.57;2.70;;;9.80;99.90;;;;;;5007659;28;20701;-52
2021/03/29 00:39:28;;;;;;;6.17;2.43;;;9.90;99.90;;;;;;5006554;28;20238;-52
2021/03/29 00:41:56;;;;;;;10.33;3.10;;;9.80;99.90;;;;;;5007797;28;20245;-52
2021/03/29 00:44:25;;;;;;;10.03;2.60;;;9.80;99.90;;;;;;5007668;28;20616;-53
2021/03/29 00:46:53;;;;;;;12.07;3.20;;;9.80;99.90;;;;;;5008096;28;20299;-55
2021/03/29 00:49:22;;;;;;;11.13;3.20;;;9.80;99.90;;;;;;5007533;28;20238;-53
2021/03/29 00:51:50;;;;;;;10.80;3.10;;;9.80;99.90;;;;;;5007590;28;20569;-54
2021/03/29 00:54:18;;;;;;;8.00;3.60;;;9.80;99.90;;;;;;5011416;28;20269;-56
2021/03/29 00:56:46;;;;;;;7.37;3.20;;;9.80;99.90;;;;;;5007985;28;20706;-54
2021/03/29 00:59:14;;;;;;;8.63;3.40;;;9.80;99.90;;;;;;5010362;28;20747;-53
2021/03/29 01:01:44;;;;;;;12.23;3.50;;;9.90;99.90;;;;;;5010503;28;20257;-56
2021/03/29 01:04:12;;;;;;;10.70;3.60;;;9.90;99.90;;;;;;5010867;28;20570;-54
2021/03/29 01:06:43;;;;;;;12.47;3.30;;;9.80;99.90;;;;;;5011472;28;20258;-55
2021/03/29 01:09:16;;;;;;;10.83;3.30;;;9.80;99.90;;;;;;5008761;28;20296;-54
2021/03/29 01:11:48;;;;;;;9.23;3.93;;;9.80;99.90;;;;;;5009128;28;20330;-53
2021/03/29 01:14:21;;;;;;;6.70;3.80;;;9.80;99.90;;;;;;5011249;28;20238;-54
2021/03/29 01:16:56;;;;;;;8.40;3.90;;;9.90;99.90;;;;;;4991255;28;20304;-52
2021/03/29 01:19:42;;;;;;;10.87;3.70;;;9.90;99.90;;;;;;5008210;28;20272;-53
2021/03/29 01:22:10;;;;;;;10.40;3.90;;;10.00;99.90;;;;;;5009604;28;20237;-56
2021/03/29 01:24:50;;;;;;;12.13;4.80;;;9.90;99.90;;;;;;4990987;28;20238;-53
2021/03/29 01:27:25;;;;;;;7.50;3.70;;;9.90;99.90;;;;;;4996556;28;20273;-52
2021/03/29 01:29:53;;;;;;;12.27;3.83;;;9.90;99.90;;;;;;5003634;28;20305;-55
2021/03/29 01:32:23;;;;;;;11.07;3.83;;;10.00;99.90;;;;;;5001707;28;20239;-53
2021/03/29 01:34:52;;;;;;;9.23;3.70;;;10.00;99.90;;;;;;5010528;28;20329;-54
2021/03/29 01:37:21;;;;;;;9.95;3.88;;;10.00;99.90;;;;;;1308566;28;10022867;-53
2021/03/29 01:39:50;;;;;;;6.00;3.27;;;10.00;99.90;;;;;;4656640;28;10001386;-54
2021/03/29 01:42:20;;;;;;;9.17;3.60;;;10.00;99.90;;;;;;4994459;28;20244;-53
2021/03/29 01:44:48;;;;;;;8.87;3.93;;;10.00;99.90;;;;;;4990807;28;20796;-53
2021/03/29 01:47:17;;;;;;;11.30;4.23;;;10.00;99.90;;;;;;4991106;28;20241;-56
2021/03/29 01:49:45;;;;;;;8.53;4.00;;;10.00;99.90;;;;;;4988403;28;20236;-56
2021/03/29 01:52:13;;;;;;;10.50;4.37;;;10.00;99.90;;;;;;4988947;28;20262;-53
2021/03/29 01:54:42;;;;;;;10.00;4.30;;;9.90;99.90;;;;;;5006246;28;21432;-53
2021/03/29 01:57:11;;;;;;;9.40;4.40;;;9.90;99.90;;;;;;5001996;28;20284;-52
2021/03/29 01:59:39;;;;;;;8.57;4.10;;;9.90;99.90;;;;;;5001832;28;20238;-54
2021/03/29 02:02:08;;;;;;;10.17;4.20;;;10.00;99.90;;;;;;4990121;28;20443;-52
2021/03/29 02:04:36;;;;;;;8.50;3.53;;;10.00;99.90;;;;;;5011766;28;20660;-54
2021/03/29 02:07:06;;;;;;;8.53;4.23;;;10.10;99.90;;;;;;5026107;28;20500;-52
2021/03/29 02:09:35;;;;;;;11.47;4.13;;;10.10;99.90;;;;;;5029144;28;20291;-53
2021/03/29 02:12:05;;;;;;;10.60;4.03;;;10.10;99.90;;;;;;5006959;28;20247;-53
2021/03/29 02:14:35;;;;;;;9.50;4.10;;;10.10;99.90;;;;;;5009892;28;20710;-56
2021/03/29 02:17:06;;;;;;;9.87;4.10;;;10.10;99.90;;;;;;5006043;28;20234;-54
2021/03/29 02:19:36;;;;;;;9.90;4.23;;;10.00;99.90;;;;;;5005757;28;20253;-57
2021/03/29 02:22:05;;;;;;;10.30;4.47;;;10.00;99.90;;;;;;5006142;28;20325;-56
2021/03/29 02:24:33;;;;;;;11.70;4.37;;;10.00;99.90;;;;;;5007338;28;20305;-55
2021/03/29 02:27:01;;;;;;;10.13;3.90;;;10.00;99.90;;;;;;5000682;28;20586;-55
2021/03/29 02:29:29;;;;;;;10.37;4.07;;;10.00;99.90;;;;;;5015043;28;20261;-52
2021/03/29 02:31:58;;;;;;;8.00;3.97;;;10.00;99.90;;;;;;5028972;28;20665;-53
2021/03/29 02:34:27;;;;;;;8.70;3.80;;;10.00;99.90;;;;;;5029514;28;20300;-52
2021/03/29 02:36:56;;;;;;;8.60;4.33;;;10.00;99.90;;;;;;5029334;28;20320;-57
2021/03/29 02:39:24;;;;;;;7.57;3.90;;;10.00;99.90;;;;;;5028390;28;20612;-53
2021/03/29 02:41:52;;;;;;;11.67;4.70;;;10.00;99.90;;;;;;5028994;28;20240;-54
2021/03/29 02:44:20;;;;;;;6.77;3.80;;;10.00;99.90;;;;;;5029141;28;20635;-54
2021/03/29 02:46:50;;;;;;;10.23;4.33;;;10.00;99.90;;;;;;5029669;28;20233;-54
2021/03/29 02:49:18;;;;;;;10.17;4.77;;;10.00;99.90;;;;;;5021883;28;20296;-54
2021/03/29 02:51:50;;;;;;;10.67;4.60;;;10.00;99.90;;;;;;5000047;28;20226;-56
2021/03/29 02:54:22;;;;;;;7.73;4.77;;;10.10;99.90;;;;;;4999870;28;20336;-55
2021/03/29 02:56:52;;;;;;;8.70;4.47;;;10.10;99.90;;;;;;5001172;28;20755;-57
2021/03/29 02:59:21;;;;;;;12.63;5.10;;;10.10;99.90;;;;;;5003877;28;20234;-56
2021/03/29 03:01:49;;;;;;;11.37;5.00;;;10.10;99.90;;;;;;5017305;28;20689;-57
2021/03/29 03:04:17;;;;;;;9.50;4.63;;;10.10;99.90;;;;;;5029214;28;20805;-56
2021/03/29 03:06:46;;;;;;;8.23;4.80;;;10.10;99.90;;;;;;5029430;28;20706;-54
2021/03/29 03:09:15;;;;;;;9.73;5.27;;;10.10;99.90;;;;;;5027868;28;20244;-55
2021/03/29 03:11:45;;;;;;;9.37;5.23;;;10.10;99.90;;;;;;5010503;28;20235;-52
2021/03/29 03:14:13;;;;;;;10.77;5.10;;;10.10;99.90;;;;;;5003285;28;20246;-53
2021/03/29 03:16:41;;;;;;;13.90;5.87;;;10.10;99.90;;;;;;5023330;28;20234;-52
2021/03/29 03:19:10;;;;;;;9.27;5.37;;;10.10;99.90;;;;;;5007214;28;20246;-53
2021/03/29 03:21:38;;;;;;;11.23;5.53;;;10.10;99.90;;;;;;4999608;28;20234;-57
2021/03/29 03:24:07;;;;;;;9.20;5.30;;;10.10;99.90;;;;;;4999918;28;20234;-52
2021/03/29 03:26:35;;;;;;;12.50;5.43;;;10.10;99.90;;;;;;5008083;28;20284;-54
2021/03/29 03:29:03;;;;;;;10.40;5.30;;;10.10;99.90;;;;;;5003914;28;20648;-54
2021/03/29 03:31:33;;;;;;;9.20;5.07;;;10.10;99.90;;;;;;5008112;28;20275;-53
2021/03/29 03:34:01;;;;;;;11.63;5.50;;;10.10;99.90;;;;;;5035486;28;20258;-53
2021/03/29 03:36:31;;;;;;;10.43;5.57;;;10.10;99.90;;;;;;5027954;28;20661;-53
2021/03/29 03:38:59;;;;;;;8.87;5.20;;;10.20;99.90;;;;;;5027401;28;20263;-53
2021/03/29 03:41:30;;;;;;;11.30;5.80;;;10.20;99.90;;;;;;5027294;28;20735;-52
2021/03/29 03:44:01;;;;;;;11.30;5.43;;;10.20;99.90;;;;;;5026574;28;20681;-52
2021/03/29 03:46:31;;;;;;;9.47;5.10;;;10.20;99.90;;;;;;4982962;28;20247;-53
2021/03/29 03:49:05;;;;;;;11.47;5.57;;;10.20;99.90;;;;;;4976615;28;20235;-53
2021/03/29 03:51:33;;;;;;;9.40;4.77;;;10.20;99.90;;;;;;4977201;28;20265;-56
2021/03/29 03:54:01;;;;;;;9.97;5.17;;;10.20;99.90;;;;;;4980121;28;20250;-54
2021/03/29 03:56:33;;;;;;;12.20;5.87;;;10.20;99.90;;;;;;4990991;28;20247;-52
2021/03/29 03:59:03;;;;;;;12.03;5.30;;;10.20;99.90;;;;;;4970228;28;20243;-57
2021/03/29 04:01:42;;;;;;;11.80;5.30;;;10.20;99.90;;;;;;4988570;28;20301;-53
2021/03/29 04:04:09;;;;;;;9.87;5.43;;;10.10;99.90;;;;;;4993393;28;20240;-54
2021/03/29 04:06:37;;;;;;;7.83;4.70;;;10.20;99.90;;;;;;4988557;28;20248;-57
2021/03/29 04:09:04;;;;;;;10.13;5.00;;;10.20;99.90;;;;;;5003494;28;20239;-57
2021/03/29 04:11:32;;;;;;;10.17;4.90;;;10.20;99.90;;;;;;5007467;28;20239;-55
2021/03/29 04:13:59;;;;;;;13.20;4.93;;;10.10;99.90;;;;;;5007926;28;20242;-53
2021/03/29 04:16:27;;;;;;;9.37;5.07;;;10.20;99.90;;;;;;5008041;28;20269;-53
2021/03/29 04:18:55;;;;;;;12.53;4.90;;;10.20;99.90;;;;;;5006349;28;20301;-56
2021/03/29 04:21:22;;;;;;;11.73;5.20;;;10.10;99.90;;;;;;5007714;28;20313;-54
2021/03/29 04:23:49;;;;;;;13.47;5.17;;;10.00;99.90;;;;;;4999297;28;20242;-54
2021/03/29 04:26:17;;;;;;;10.90;4.93;;;9.90;99.90;;;;;;5001709;28;20323;-53
2021/03/29 04:28:45;;;;;;;11.03;4.97;;;9.90;99.90;;;;;;5007079;28;20246;-53
2021/03/29 04:31:13;;;;;;;11.77;5.07;;;9.90;99.90;;;;;;5014466;28;20304;-53
2021/03/29 04:33:41;;;;;;;10.90;5.40;;;9.80;99.90;;;;;;5001639;28;20242;-53
2021/03/29 04:36:09;;;;;;;9.23;5.30;;;9.80;99.90;;;;;;5000465;28;20238;-54
2021/03/29 04:38:36;;;;;;;9.30;5.40;;;9.80;99.90;;;;;;5002275;28;20241;-54
2021/03/29 04:41:05;;;;;;;10.07;4.63;;;9.70;99.90;;;;;;5002725;28;20242;-54
2021/03/29 04:43:33;;;;;;;11.67;5.60;;;9.70;99.90;;;;;;4997504;28;20239;-55
2021/03/29 04:46:00;;;;;;;11.03;5.50;;;9.70;99.90;;;;;;5000780;28;20783;-53
2021/03/29 04:48:27;;;;;;;8.90;4.53;;;9.70;99.90;;;;;;4998983;28;20267;-55
2021/03/29 04:50:56;;;;;;;12.00;6.00;;;9.70;99.90;;;;;;5002716;28;20298;-57
2021/03/29 04:53:23;;;;;;;11.57;5.23;;;9.80;99.90;;;;;;5001930;28;20230;-56
2021/03/29 04:55:51;;;;;;;12.23;5.30;;;9.80;99.90;;;;;;5009443;28;20229;-56
2021/03/29 04:58:19;;;;;;;10.93;5.10;;;9.80;99.90;;;;;;5010863;28;20728;-56
2021/03/29 05:00:46;;;;;;;8.23;4.70;;;9.70;99.90;;;;;;5010089;28;20246;-57
2021/03/29 05:03:13;;;;;;;16.23;5.30;;;9.80;99.90;;;;;;5010001;28;20720;-52
2021/03/29 05:05:40;;;;;;;10.13;4.37;;;9.80;99.90;;;;;;4996684;28;20259;-55
2021/03/29 05:08:09;;;;;;;11.53;5.50;;;9.80;99.90;;;;;;4993871;28;20305;-53
2021/03/29 05:10:40;;;;;;;8.30;4.70;;;9.90;99.90;;;;;;4996076;28;20239;-54
2021/03/29 05:13:17;;;;;;;9.90;4.30;;;10.00;99.90;;;;;;5007838;28;20240;-56
2021/03/29 05:15:45;;;;;;;8.90;4.97;;;10.00;99.90;;;;;;5004924;28;20729;-53
2021/03/29 05:18:13;;;;;;;11.30;4.67;;;10.00;99.90;;;;;;5002230;28;20243;-54
2021/03/29 05:20:40;;;;;;;11.10;4.90;;;10.00;99.90;;;;;;5007169;28;20648;-56
2021/03/29 05:23:08;;;;;;;9.90;4.77;;;9.90;99.90;;;;;;5009838;28;20242;-53
2021/03/29 05:25:36;;;;;;;9.17;4.83;;;10.00;99.90;;;;;;5007457;28;20238;-54
2021/03/29 05:28:03;;;;;;;9.00;4.50;;;10.00;99.90;;;;;;5003794;28;20242;-52
2021/03/29 05:30:35;;;;;;;8.47;4.90;;;10.00;99.90;;;;;;5001809;28;20598;-53
2021/03/29 05:33:03;;;;;;;14.23;4.43;;;10.00;99.90;;;;;;5007903;28;20249;-55
2021/03/29 05:35:31;;;;;;;8.40;4.70;;;10.00;99.90;;;;;;5001670;28;20292;-55
2021/03/29 05:37:58;;;;;;;10.67;4.60;;;10.00;99.90;;;;;;5000190;28;20241;-53
2021/03/29 05:40:26;;;;;;;10.63;4.73;;;10.00;99.90;;;;;;4998877;28;20236;-54
2021/03/29 05:42:55;;;;;;;9.67;4.30;;;10.10;99.90;;;;;;5001156;28;20288;-53
2021/03/29 05:45:23;;;;;;;10.60;4.43;;;10.10;99.90;;;;;;4999435;28;20274;-56
2021/03/29 05:47:51;;;;;;;7.77;4.40;;;10.20;99.90;;;;;;4993533;28;20259;-55
2021/03/29 05:50:18;;;;;;;8.10;4.37;;;10.20;99.90;;;;;;5011703;28;20704;-52
2021/03/29 05:52:49;;;;;;;9.67;4.73;;;10.20;99.90;;;;;;4999796;28;20253;-56
2021/03/29 05:55:22;;;;;;;10.80;4.37;;;10.30;99.90;;;;;;4999826;28;20230;-54
2021/03/29 05:58:07;;;;;;;10.30;4.27;;;10.30;99.90;;;;;;5000984;28;20239;-55
2021/03/29 06:00:41;;;;;;;9.60;3.93;;;10.30;99.90;;;;;;4994313;28;20274;-52
2021/03/29 06:03:28;;;;;;;9.10;4.13;;;10.30;99.90;;;;;;4984211;28;20251;-57
2021/03/29 06:05:58;;;;;;;8.30;3.93;;;10.40;99.90;;;;;;4984722;28;20277;-53
2021/03/29 06:08:26;;;;;;;9.07;4.00;;;10.40;99.90;;;;;;4995034;28;21043;-54
2021/03/29 06:10:55;;;;;;;10.90;4.33;;;10.40;99.90;;;;;;5001329;28;20241;-56
2021/03/29 06:13:28;;;;;;;9.07;3.90;;;10.50;99.90;;;;;;5002191;28;20530;-56
2021/03/29 06:16:11;;;;;;;9.47;4.00;;;10.50;99.90;;;;;;5003735;28;20328;-55
2021/03/29 06:18:50;;;;;;;9.30;4.33;;;10.60;99.90;;;;;;5005491;28;20273;-55
2021/03/29 06:21:18;;;;;;;7.97;4.13;;;10.70;99.90;;;;;;5000182;28;20241;-55
2021/03/29 06:23:59;;;;;;;12.37;4.57;;;10.80;99.90;;;;;;5015627;28;20320;-53
2021/03/29 06:26:29;;;;;;;8.00;4.20;;;10.80;99.90;;;;;;5003285;28;20241;-54
2021/03/29 06:28:58;;;;;;;10.17;3.73;;;10.90;99.90;;;;;;5001883;28;20717;-58
2021/03/29 06:31:31;;;;;;;9.13;3.97;;;10.90;99.90;;;;;;5001058;28;20333;-55
2021/03/29 06:34:01;;;;;;;6.63;3.60;;;11.00;99.90;;;;;;5002851;28;20637;-55
2021/03/29 06:36:40;;;;;;;13.37;4.80;;;11.10;99.90;;;;;;5002240;28;20239;-52
2021/03/29 06:39:17;;;;;;;9.67;4.03;;;11.20;99.90;;;;;;4985319;28;20410;-56
2021/03/29 06:41:56;;;;;;;9.67;3.83;;;11.30;99.90;;;;;;4989681;28;20293;-53
2021/03/29 06:44:26;;;;;;;10.00;3.60;;;11.30;99.90;;;;;;4992600;28;20250;-54
2021/03/29 06:47:13;;;;;;;12.80;3.83;;;11.20;99.90;;;;;;4991846;28;20235;-55
2021/03/29 06:49:45;;;;;;;10.33;3.73;;;11.10;99.90;;;;;;4999297;28;20259;-56
2021/03/29 06:52:34;;;;;;;7.23;3.67;;;11.20;99.90;;;;;;5000272;28;20314;-53
2021/03/29 06:55:23;;;;;;;9.63;3.47;;;11.20;99.90;;;;;;4998854;28;20595;-57
2021/03/29 06:58:02;;;;;;;7.83;3.93;;;11.20;99.90;;;;;;5000024;28;20596;-54
2021/03/29 07:00:33;;;;;;;11.20;3.73;;;11.20;99.90;;;;;;5000923;28;20232;-54
2021/03/29 07:03:06;;;;;;;7.37;3.63;;;11.20;99.90;;;;;;4977406;28;20315;-54
2021/03/29 07:05:36;;;;;;;7.90;3.50;;;11.40;99.90;;;;;;4973038;28;20683;-56
2021/03/29 07:08:06;;;;;;;11.17;4.00;;;11.40;99.90;;;;;;4981095;28;20689;-52
2021/03/29 07:10:33;;;;;;;8.80;3.87;;;11.50;99.90;;;;;;4981411;28;20262;-53
2021/03/29 07:13:07;;;;;;;7.33;3.87;;;11.50;99.90;;;;;;4980800;28;20306;-54
2021/03/29 07:15:37;;;;;;;8.90;3.70;;;11.50;99.90;;;;;;4992180;28;20268;-52
2021/03/29 07:18:05;;;;;;;8.47;3.97;;;11.50;99.90;;;;;;4981007;28;20321;-55
2021/03/29 07:20:33;;;;;;;9.90;3.80;;;11.60;99.90;;;;;;4985179;28;20249;-54
2021/03/29 07:23:00;;;;;;;11.37;3.83;;;11.60;99.90;;;;;;5002382;28;20628;-56
2021/03/29 07:25:31;;;;;;;11.07;3.80;;;11.60;99.90;;;;;;5000298;28;20272;-57
2021/03/29 07:28:02;;;;;;;12.30;4.20;;;11.60;99.90;;;;;;4998270;28;20776;-55
2021/03/29 07:30:48;;;;;;;9.93;4.13;;;11.60;99.90;;;;;;4998063;28;20726;-54
2021/03/29 07:33:17;;;;;;;10.47;4.00;;;11.60;99.90;;;;;;4992915;28;20282;-55
2021/03/29 07:35:49;;;;;;;11.43;4.20;;;11.60;99.90;;;;;;4997227;28;20304;-54
2021/03/29 07:38:18;;;;;;;8.33;3.93;;;11.60;99.90;;;;;;4998702;28;20580;-53
2021/03/29 07:40:50;;;;;;;11.40;3.40;;;11.70;99.90;;;;;;4998159;28;20311;-52
2021/03/29 07:43:19;;;;;;;9.33;3.97;;;11.80;99.90;;;;;;4999254;28;20380;-57
2021/03/29 07:45:54;;;;;;;11.47;4.27;;;11.80;99.90;;;;;;5002052;28;20236;-56
2021/03/29 07:48:39;;;;;;;9.30;4.10;;;11.80;99.90;;;;;;4998564;28;20232;-55
2021/03/29 07:51:10;;;;;;;8.07;4.20;;;12.00;99.90;;;;;;4999122;28;20325;-57
2021/03/29 07:53:44;;;;;;;10.13;4.10;;;12.10;99.90;;;;;;4985061;28;20336;-54
2021/03/29 07:56:41;;;;;;;8.77;3.67;;;12.20;99.90;;;;;;4972840;28;20336;-54
2021/03/29 07:59:13;;;;;;;7.70;3.37;;;12.30;99.90;;;;;;4977803;28;20970;-53
2021/03/29 08:02:01;;;;;;;9.03;3.83;;;12.20;99.90;;;;;;4993792;28;20245;-55
2021/03/29 08:05:04;;;;;;;8.43;3.73;;;12.30;99.90;;;;;;4988757;28;20577;-57
2021/03/29 08:07:38;;;;;;;8.43;3.93;;;12.30;99.90;;;;;;4988288;28;20244;-54
2021/03/29 08:10:08;;;;;;;10.83;4.87;;;12.30;99.90;;;;;;4995979;28;20537;-53
2021/03/29 08:12:38;;;;;;;6.77;3.23;;;12.30;99.90;;;;;;4998820;28;20247;-57
2021/03/29 08:15:06;;;;;;;7.43;3.77;;;12.30;99.90;;;;;;5001575;28;20254;-56
2021/03/29 08:17:52;;;;;;;12.57;4.57;;;12.30;99.90;;;;;;4999258;28;20267;-54
2021/03/29 08:20:43;;;;;;;8.93;4.27;;;12.40;99.90;;;;;;4998072;28;20633;-57
2021/03/29 08:23:38;;;;;;;8.70;4.07;;;12.40;99.90;;;;;;5001224;28;20293;-56
2021/03/29 08:26:19;;;;;;;8.70;4.17;;;12.40;99.90;;;;;;4999619;28;20243;-57
2021/03/29 08:29:17;;;;;;;9.43;4.37;;;12.40;99.90;;;;;;4997197;28;20244;-57
2021/03/29 08:32:15;;;;;;;9.10;4.00;;;12.30;99.90;;;;;;4997812;28;20324;-55
2021/03/29 08:34:59;;;;;;;7.37;4.23;;;12.40;99.90;;;;;;4994890;28;20813;-54
2021/03/29 08:37:31;;;;;;;9.27;3.83;;;12.50;99.90;;;;;;4995914;28;20247;-56
2021/03/29 08:40:00;;;;;;;8.27;3.93;;;12.60;99.90;;;;;;4999804;28;20297;-55
2021/03/29 08:42:31;;;;;;;10.53;4.17;;;12.60;99.90;;;;;;4999996;28;20259;-58
2021/03/29 08:45:03;;;;;;;8.50;3.93;;;12.60;99.90;;;;;;5000608;28;20266;-57
2021/03/29 08:47:30;;;;;;;9.57;4.23;;;12.70;99.90;;;;;;4996505;28;20249;-58
2021/03/29 08:50:07;;;;;;;8.77;4.00;;;12.80;99.90;;;;;;4999225;28;20334;-57
2021/03/29 08:52:47;;;;;;;11.20;4.33;;;12.80;99.90;;;;;;4994136;28;20239;-56
2021/03/29 08:55:19;;;;;;;8.27;3.73;;;13.00;99.90;;;;;;4990402;28;20252;-57
2021/03/29 08:57:48;;;;;;;10.40;4.03;;;13.20;99.90;;;;;;4994379;28;20252;-56
2021/03/29 09:00:19;;;;;;;8.53;4.30;;;13.30;99.90;;;;;;4987347;28;20249;-55
2021/03/29 09:02:47;;;;;;;8.77;3.77;;;13.40;99.90;;;;;;4991634;28;21035;-56
2021/03/29 09:05:17;;;;;;;10.33;3.70;;;13.50;99.90;;;;;;4995072;28;20326;-56
2021/03/29 09:07:47;;;;;;;9.67;4.33;;;13.50;99.90;;;;;;4999651;28;20299;-58
2021/03/29 09:10:19;;;;;;;10.57;4.60;;;13.60;99.90;;;;;;4999643;28;20248;-57
2021/03/29 09:12:53;;;;;;;9.67;4.33;;;13.70;99.90;;;;;;4998216;28;20245;-55
2021/03/29 09:15:21;;;;;;;6.57;3.67;;;13.90;99.90;;;;;;5010835;28;20570;-56
2021/03/29 09:17:58;;;;;;;11.37;4.37;;;13.90;99.90;;;;;;5010900;28;20240;-55
2021/03/29 09:20:28;;;;;;;11.67;4.47;;;14.10;99.90;;;;;;5003452;28;20244;-53
2021/03/29 09:22:56;;;;;;;9.87;4.13;;;14.30;99.90;;;;;;4993330;28;20693;-55
2021/03/29 09:25:29;;;;;;;10.97;4.17;;;14.50;99.90;;;;;;4997373;28;20284;-55
2021/03/29 09:28:12;;;;;;;9.77;3.90;;;14.80;99.90;;;;;;4995730;28;20339;-58
2021/03/29 09:30:41;;;;;;;9.87;4.60;;;14.80;99.90;;;;;;4987425;28;20237;-57
2021/03/29 09:33:08;;;;;;;8.40;4.07;;;14.80;99.90;;;;;;5001715;28;20248;-55
2021/03/29 09:35:36;;;;;;;10.53;3.93;;;14.90;99.90;;;;;;4998327;28;20239;-57
2021/03/29 09:38:03;;;;;;;9.57;4.40;;;15.10;99.90;;;;;;5004809;28;20276;-57
2021/03/29 09:40:36;;;;;;;9.57;4.13;;;15.20;99.90;;;;;;4995096;28;20226;-55
2021/03/29 09:43:05;;;;;;;9.90;4.83;;;15.20;99.90;;;;;;5010084;28;20673;-56
2021/03/29 09:45:34;;;;;;;7.87;4.40;;;15.40;99.90;;;;;;5012470;28;20236;-57
2021/03/29 09:48:05;;;;;;;13.60;4.80;;;15.70;99.90;;;;;;5007595;28;20236;-57
2021/03/29 09:50:35;;;;;;;9.57;4.43;;;16.00;99.90;;;;;;5010175;28;20294;-56
2021/03/29 09:53:15;;;;;;;10.80;4.53;;;16.30;99.90;;;;;;5009717;28;20810;-58
2021/03/29 09:55:48;;;;;;;9.63;4.30;;;16.60;99.90;;;;;;5007091;28;20236;-54
2021/03/29 09:58:26;;;;;;;8.73;4.97;;;16.60;99.90;;;;;;5002441;28;20245;-56
2021/03/29 10:00:57;;;;;;;10.20;4.73;;;16.80;99.90;;;;;;5000000;28;20317;-57
2021/03/29 10:03:52;;;;;;;11.67;4.33;;;16.80;99.90;;;;;;5006055;28;20701;-57
2021/03/29 10:06:20;;;;;;;7.30;4.50;;;16.70;99.90;;;;;;5006454;28;20233;-57
2021/03/29 10:08:56;;;;;;;7.70;4.30;;;16.80;99.90;;;;;;5004280;28;20706;-55
2021/03/29 10:11:24;;;;;;;9.23;4.17;;;17.00;99.90;;;;;;5001865;28;20283;-54
2021/03/29 10:14:04;;;;;;;10.10;4.30;;;17.00;99.90;;;;;;4971240;28;20293;-58
2021/03/29 10:16:31;;;;;;;8.40;4.80;;;17.10;99.90;;;;;;4970355;28;20708;-55
2021/03/29 10:19:19;;;;;;;10.20;4.50;;;17.20;99.90;;;;;;4965454;28;20263;-56
2021/03/29 10:22:10;;;;;;;8.70;4.47;;;17.40;99.90;;;;;;4969363;28;20243;-56
2021/03/29 10:24:56;;;;;;;10.60;4.43;;;17.70;99.90;;;;;;4983378;28;20250;-56
2021/03/29 10:27:42;;;;;;;10.77;4.07;;;18.20;99.90;;;;;;4997620;28;20587;-55
2021/03/29 10:30:13;;;;;;;7.53;4.10;;;18.50;99.90;;;;;;4979093;28;20281;-57
2021/03/29 10:32:40;;;;;;;9.13;4.53;;;18.40;99.90;;;;;;4987857;28;20241;-56
2021/03/29 10:35:10;;;;;;;10.83;4.53;;;18.20;99.90;;;;;;4988714;28;20768;-56
2021/03/29 10:37:38;;;;;;;8.37;4.77;;;18.30;99.90;;;;;;4979023;28;20711;-56
2021/03/29 10:40:07;;;;;;;9.80;4.33;;;18.40;99.90;;;;;;4989274;28;20237;-56
2021/03/29 10:42:40;;;;;;;10.90;5.40;;;18.50;99.90;;;;;;4968134;28;20247;-55
2021/03/29 10:45:12;;;;;;;6.30;4.07;;;18.20;99.90;;;;;;4962576;28;20616;-56
2021/03/29 10:47:44;;;;;;;10.97;4.60;;;17.90;99.90;;;;;;4961151;28;20267;-62
2021/03/29 10:50:16;;;;;;;9.23;4.50;;;17.90;99.90;;;;;;4959307;28;20235;-58
2021/03/29 10:52:43;;;;;;;6.77;4.37;;;18.30;99.90;;;;;;4965239;28;20237;-57
2021/03/29 10:55:12;;;;;;;10.90;4.47;;;18.80;99.90;;;;;;4962974;28;20249;-57
2021/03/29 10:57:40;;;;;;;9.90;4.43;;;19.30;99.90;;;;;;4968334;28;20246;-56
2021/03/29 11:00:09;;;;;;;8.90;4.40;;;19.30;99.90;;;;;;4962020;28;20962;-57
2021/03/29 11:02:37;;;;;;;9.30;4.70;;;19.10;99.90;;;;;;4995903;28;20255;-56
2021/03/29 11:05:06;;;;;;;8.80;4.20;;;19.20;99.90;;;;;;4996778;28;20298;-57
2021/03/29 11:07:34;;;;;;;7.57;4.20;;;19.00;99.90;;;;;;4981223;28;20774;-57
2021/03/29 11:10:03;;;;;;;9.43;4.70;;;19.10;99.90;;;;;;4981890;28;20556;-57
2021/03/29 11:12:30;;;;;;;8.47;4.83;;;19.20;99.90;;;;;;4979208;28;20319;-57
2021/03/29 11:14:57;;;;;;;8.90;4.23;;;19.40;99.90;;;;;;5005849;28;20318;-57
2021/03/29 11:17:27;;;;;;;7.47;4.40;;;19.40;99.90;;;;;;4988058;28;20296;-55
2021/03/29 11:19:54;;;;;;;9.43;4.37;;;19.40;99.90;;;;;;5001637;28;20242;-58
2021/03/29 11:22:22;;;;;;;9.33;4.73;;;19.70;99.90;;;;;;4981317;28;20251;-57
2021/03/29 11:24:50;;;;;;;7.93;4.57;;;19.60;99.90;;;;;;4997537;28;20295;-59
2021/03/29 11:27:17;;;;;;;7.97;4.23;;;19.60;99.90;;;;;;5000770;28;20245;-55
2021/03/29 11:29:46;;;;;;;8.80;4.80;;;19.70;99.90;;;;;;5004118;28;20232;-55
2021/03/29 11:32:14;;;;;;;9.87;4.60;;;19.90;99.90;;;;;;5002801;28;20573;-55
2021/03/29 11:34:41;;;;;;;7.80;4.60;;;20.00;99.90;;;;;;5007415;28;20767;-54
2021/03/29 11:37:09;;;;;;;12.50;4.93;;;20.00;99.90;;;;;;5006747;28;20673;-56
2021/03/29 11:39:38;;;;;;;8.23;4.47;;;20.10;99.90;;;;;;4985910;28;20257;-55
2021/03/29 11:42:07;;;;;;;8.77;4.97;;;20.20;99.90;;;;;;5001236;28;20236;-57
2021/03/29 11:44:34;;;;;;;8.90;4.47;;;20.00;99.90;;;;;;5003120;28;20352;-57
2021/03/29 11:47:02;;;;;;;7.27;4.40;;;20.00;99.90;;;;;;4999276;28;20298;-58
2021/03/29 11:49:29;;;;;;;10.67;4.57;;;20.20;99.90;;;;;;4998894;28;20321;-55
2021/03/29 11:51:57;;;;;;;7.60;4.03;;;20.10;99.90;;;;;;4998658;28;20278;-58
2021/03/29 11:54:24;;;;;;;8.47;4.57;;;20.10;99.90;;;;;;4997924;28;20565;-57
2021/03/29 11:56:51;;;;;;;8.37;4.80;;;20.00;99.90;;;;;;4998266;28;20227;-58
2021/03/29 11:59:20;;;;;;;7.80;4.73;;;19.80;99.90;;;;;;5001176;28;20243;-56
2021/03/29 12:01:51;;;;;;;10.17;4.77;;;19.70;99.90;;;;;;4997655;28;20327;-58
2021/03/29 12:04:19;;;;;;;8.63;4.67;;;19.60;99.90;;;;;;4993293;28;20235;-56
2021/03/29 12:06:50;;;;;;;10.07;4.70;;;19.40;99.90;;;;;;4984729;28;20637;-58
2021/03/29 12:09:25;;;;;;;9.63;5.00;;;19.20;99.90;;;;;;4986444;28;20298;-59
2021/03/29 12:12:04;;;;;;;10.70;5.43;;;19.00;99.90;;;;;;4986052;28;20287;-57
2021/03/29 12:14:34;;;;;;;6.37;4.37;;;19.20;99.90;;;;;;5001784;28;20296;-56
2021/03/29 12:17:03;;;;;;;10.67;5.07;;;19.30;99.90;;;;;;4987587;28;20244;-58
2021/03/29 12:19:31;;;;;;;8.70;5.07;;;19.20;99.90;;;;;;4987139;28;20239;-58
2021/03/29 12:22:03;;;;;;;10.57;5.17;;;19.00;99.90;;;;;;4990062;28;20320;-58
2021/03/29 12:24:34;;;;;;;8.40;4.73;;;18.90;99.90;;;;;;4992384;28;20247;-54
2021/03/29 12:27:03;;;;;;;9.07;5.23;;;19.00;99.90;;;;;;4996950;28;20251;-57
2021/03/29 12:29:38;;;;;;;8.03;4.43;;;19.10;99.90;;;;;;5000118;28;20763;-58
2021/03/29 12:32:10;;;;;;;10.07;4.90;;;19.10;99.90;;;;;;4998276;28;20242;-57
2021/03/29 12:34:44;;;;;;;9.80;5.07;;;19.10;99.90;;;;;;5007194;28;20254;-59
2021/03/29 12:37:12;;;;;;;8.50;4.70;;;19.00;99.90;;;;;;5017141;28;20565;-58
2021/03/29 12:39:43;;;;;;;8.53;5.37;;;18.90;99.90;;;;;;5000981;28;20259;-56
2021/03/29 12:42:14;;;;;;;9.80;4.97;;;19.00;99.90;;;;;;5001481;28;20857;-56
2021/03/29 12:44:43;;;;;;;8.03;5.00;;;19.00;99.90;;;;;;5003217;28;20618;-55
2021/03/29 12:47:12;;;;;;;10.00;4.97;;;19.20;99.90;;;;;;5003012;28;20251;-56
2021/03/29 12:49:40;;;;;;;8.67;5.07;;;19.50;99.90;;;;;;5007570;28;20659;-56
2021/03/29 12:52:08;;;;;;;10.10;5.43;;;19.50;99.90;;;;;;4998134;28;20236;-54
2021/03/29 12:54:37;;;;;;;11.93;5.57;;;19.50;99.90;;;;;;4991640;28;20754;-54
2021/03/29 12:57:05;;;;;;;8.87;4.97;;;19.50;99.90;;;;;;5015818;28;20251;-55
2021/03/29 12:59:32;;;;;;;8.50;5.40;;;19.40;99.90;;;;;;5000496;28;22114;-56
2021/03/29 13:02:01;;;;;;;10.83;5.20;;;19.50;99.90;;;;;;5001433;28;20240;-55
2021/03/29 13:04:32;;;;;;;10.40;5.63;;;19.60;99.90;;;;;;5004610;28;20232;-55